Time;durP1;ratioP1;P1;durP2;ratioP2;P2;SDS_P1;SDS_P2;PMS_P1;PMS_P2;Temp;Humidity;BMP_temperature;BMP_pressure;BME280_temperature;BME280_humidity;BME280_pressure;Samples;Min_cycle;Max_cycle;Signal;HPM_P1;HPM_P2
2023/03/01 00:00:46;;;;;;;16.20;10.40;;;2.50;1.00;;;;;;5011976;28;20193;-72
2023/03/01 00:03:12;;;;;;;15.50;10.20;;;2.50;1.00;;;;;;5026249;28;20656;-71
2023/03/01 00:05:46;;;;;;;21.53;9.70;;;2.90;1.00;;;;;;5015380;28;20549;-71
2023/03/01 00:08:12;;;;;;;13.80;9.30;;;2.60;1.00;;;;;;5028315;28;20193;-71
2023/03/01 00:10:37;;;;;;;16.97;10.10;;;2.60;1.00;;;;;;5020209;28;20494;-71
2023/03/01 00:13:05;;;;;;;18.20;10.87;;;2.60;1.00;;;;;;5015818;28;20683;-71
2023/03/01 00:15:31;;;;;;;15.53;9.53;;;2.60;1.00;;;;;;5008039;28;20225;-71
2023/03/01 00:17:56;;;;;;;15.30;9.50;;;2.60;1.00;;;;;;5016453;28;20437;-70
2023/03/01 00:20:22;;;;;;;15.67;9.50;;;3.00;1.00;;;;;;5024088;28;20775;-71
2023/03/01 00:22:48;;;;;;;17.60;9.73;;;2.60;1.00;;;;;;5021034;28;20812;-71
2023/03/01 00:25:13;;;;;;;14.17;9.77;;;2.60;1.00;;;;;;5010906;28;20217;-71
2023/03/01 00:27:39;;;;;;;17.57;9.93;;;2.60;1.00;;;;;;5022950;28;20183;-71
2023/03/01 00:30:05;;;;;;;16.43;10.10;;;2.60;1.00;;;;;;5017915;28;20197;-71
2023/03/01 00:32:30;;;;;;;14.90;9.53;;;2.60;1.00;;;;;;4994653;28;20220;-71
2023/03/01 00:34:56;;;;;;;16.00;10.60;;;2.60;1.00;;;;;;5025552;28;20476;-71
2023/03/01 00:37:22;;;;;;;15.90;9.70;;;2.60;1.00;;;;;;5021177;28;20639;-71
2023/03/01 00:39:48;;;;;;;18.37;10.30;;;2.60;1.00;;;;;;4998535;28;20194;-71
2023/03/01 00:42:14;;;;;;;16.17;10.47;;;2.60;1.00;;;;;;5019064;28;20541;-71
2023/03/01 00:44:40;;;;;;;20.03;10.27;;;2.70;1.00;;;;;;5012137;28;20580;-71
2023/03/01 00:47:05;;;;;;;17.37;10.27;;;2.50;1.00;;;;;;5026951;28;20265;-71
2023/03/01 00:49:31;;;;;;;22.00;10.47;;;2.90;1.00;;;;;;5019597;28;20190;-71
2023/03/01 00:51:56;;;;;;;16.70;10.13;;;2.50;1.00;;;;;;5010826;28;20182;-70
2023/03/01 00:54:22;;;;;;;16.70;10.20;;;2.50;1.00;;;;;;5002186;28;20212;-71
2023/03/01 00:56:47;;;;;;;15.50;10.90;;;2.50;1.00;;;;;;5024446;28;20214;-71
2023/03/01 00:59:13;;;;;;;17.67;10.23;;;2.50;1.00;;;;;;5010376;28;20193;-71
2023/03/01 01:01:39;;;;;;;18.37;10.50;;;2.50;1.00;;;;;;5015325;28;20190;-71
2023/03/01 01:04:10;;;;;;;19.10;10.40;;;2.40;1.00;;;;;;5018809;28;20234;-71
2023/03/01 01:06:38;;;;;;;16.20;10.07;;;2.80;1.00;;;;;;5002578;28;20664;-71
2023/03/01 01:09:06;;;;;;;27.33;10.87;;;2.40;1.00;;;;;;5022495;28;20776;-71
2023/03/01 01:11:32;;;;;;;18.43;10.97;;;2.80;1.00;;;;;;5013337;28;20437;-71
2023/03/01 01:13:58;;;;;;;18.40;9.67;;;2.30;1.00;;;;;;5010598;28;20453;-71
2023/03/01 01:16:26;;;;;;;16.73;10.53;;;2.60;1.00;;;;;;5012092;28;20819;-71
2023/03/01 01:18:52;;;;;;;18.83;11.47;;;2.50;1.00;;;;;;5019988;28;20487;-72
2023/03/01 01:21:20;;;;;;;16.40;10.50;;;2.40;1.00;;;;;;5025703;28;20440;-71
2023/03/01 01:23:47;;;;;;;17.83;10.53;;;2.10;1.00;;;;;;5014095;28;21041;-72
2023/03/01 01:26:17;;;;;;;19.47;12.13;;;2.10;1.00;;;;;;5015122;28;20472;-71
2023/03/01 01:28:43;;;;;;;15.80;10.70;;;2.10;1.00;;;;;;5032243;28;20514;-72
2023/03/01 01:31:08;;;;;;;16.57;10.40;;;2.10;1.00;;;;;;5012876;28;20500;-71
2023/03/01 01:33:34;;;;;;;16.20;11.00;;;2.60;1.00;;;;;;5012161;28;20194;-71
2023/03/01 01:36:00;;;;;;;23.13;11.97;;;2.50;1.00;;;;;;5002438;28;20672;-71
2023/03/01 01:38:25;;;;;;;16.23;10.33;;;2.10;1.00;;;;;;5031960;28;20181;-71
2023/03/01 01:40:58;;;;;;;16.73;10.47;;;2.10;1.00;;;;;;4998269;28;20386;-71
2023/03/01 01:43:27;;;;;;;18.03;10.40;;;2.30;1.00;;;;;;5023115;28;20178;-72
2023/03/01 01:46:06;;;;;;;21.70;10.77;;;2.50;1.00;;;;;;5013297;28;20437;-71
2023/03/01 01:48:41;;;;;;;15.70;10.17;;;2.30;1.00;;;;;;5018713;28;20439;-71
2023/03/01 01:51:12;;;;;;;18.07;10.03;;;2.20;1.00;;;;;;5022618;28;20435;-71
2023/03/01 01:53:39;;;;;;;16.13;10.53;;;2.50;1.00;;;;;;5021213;28;20467;-71
2023/03/01 01:56:08;;;;;;;17.57;10.67;;;2.00;1.00;;;;;;5011414;28;20465;-71
2023/03/01 01:58:34;;;;;;;17.63;11.40;;;2.00;1.00;;;;;;5026565;28;20991;-72
2023/03/01 02:01:01;;;;;;;18.53;11.37;;;2.00;1.00;;;;;;5001042;28;20436;-70
2023/03/01 02:03:33;;;;;;;15.50;10.33;;;2.00;1.00;;;;;;5011785;28;20231;-71
2023/03/01 02:06:11;;;;;;;16.00;11.00;;;2.00;1.00;;;;;;5025794;28;20488;-71
2023/03/01 02:08:41;;;;;;;22.73;11.03;;;2.00;1.00;;;;;;5001106;28;20428;-71
2023/03/01 02:11:07;;;;;;;19.63;11.70;;;2.30;1.00;;;;;;5014035;28;20517;-71
2023/03/01 02:13:34;;;;;;;16.60;10.63;;;1.90;1.00;;;;;;5022480;28;20549;-72
2023/03/01 02:16:03;;;;;;;19.93;11.40;;;1.90;1.00;;;;;;5013985;28;20469;-71
2023/03/01 02:18:29;;;;;;;17.20;10.50;;;1.90;1.00;;;;;;5020723;28;21061;-71
2023/03/01 02:21:23;;;;;;;18.23;11.00;;;1.90;1.00;;;;;;5025495;28;20524;-71
2023/03/01 02:23:48;;;;;;;16.87;10.60;;;1.80;1.00;;;;;;5025412;28;20558;-71
2023/03/01 02:26:42;;;;;;;21.37;11.53;;;2.20;1.00;;;;;;4995883;28;20436;-71
2023/03/01 02:29:07;;;;;;;17.80;11.10;;;1.80;1.00;;;;;;5011148;28;20546;-71
2023/03/01 02:31:42;;;;;;;16.70;9.73;;;2.10;1.00;;;;;;5004987;28;20448;-71
2023/03/01 02:34:11;;;;;;;18.37;10.77;;;2.10;1.00;;;;;;5001640;28;20198;-71
2023/03/01 02:36:40;;;;;;;19.97;11.80;;;2.20;1.00;;;;;;5011069;28;21008;-71
2023/03/01 02:39:14;;;;;;;18.43;11.90;;;1.80;1.00;;;;;;5007583;28;20426;-70
2023/03/01 02:41:42;;;;;;;16.87;10.70;;;1.80;1.00;;;;;;5030944;28;20447;-71
2023/03/01 02:44:08;;;;;;;19.27;11.40;;;1.80;1.00;;;;;;5013013;28;21030;-71
2023/03/01 02:46:33;;;;;;;20.40;11.43;;;2.20;1.00;;;;;;5008467;28;20433;-71
2023/03/01 02:48:59;;;;;;;19.90;12.13;;;2.00;1.00;;;;;;5004234;28;20619;-71
2023/03/01 02:51:52;;;;;;;20.20;11.80;;;1.80;1.00;;;;;;5009795;28;20269;-71
2023/03/01 02:54:41;;;;;;;20.87;11.50;;;1.80;1.00;;;;;;5004282;28;20472;-72
2023/03/01 02:57:07;;;;;;;20.50;11.93;;;1.80;1.00;;;;;;5025969;28;20994;-71
2023/03/01 02:59:39;;;;;;;20.67;12.00;;;1.80;1.00;;;;;;5022278;28;20475;-71
2023/03/01 03:02:06;;;;;;;19.23;11.67;;;2.20;1.00;;;;;;5003898;28;20851;-70
2023/03/01 03:04:31;;;;;;;20.40;11.30;;;2.30;1.00;;;;;;5026136;28;20474;-72
2023/03/01 03:06:57;;;;;;;19.30;11.10;;;1.80;1.00;;;;;;5023130;28;20426;-71
2023/03/01 03:09:22;;;;;;;19.00;11.90;;;1.80;1.00;;;;;;5012734;28;20560;-71
2023/03/01 03:11:48;;;;;;;18.37;10.83;;;1.80;1.00;;;;;;5030524;28;20667;-71
2023/03/01 03:14:15;;;;;;;17.13;11.40;;;1.80;1.00;;;;;;5026774;28;20291;-71
2023/03/01 03:16:43;;;;;;;20.90;11.77;;;1.80;1.00;;;;;;5025022;28;20731;-71
2023/03/01 03:19:09;;;;;;;20.07;10.60;;;1.80;1.00;;;;;;5023453;28;20444;-71
2023/03/01 03:21:35;;;;;;;18.70;10.90;;;2.20;1.00;;;;;;5026108;28;20518;-72
2023/03/01 03:24:01;;;;;;;19.60;11.63;;;1.70;1.00;;;;;;5009322;28;20518;-71
2023/03/01 03:26:26;;;;;;;20.20;11.37;;;2.10;1.00;;;;;;5025010;28;20433;-71
2023/03/01 03:28:52;;;;;;;22.50;12.57;;;1.70;1.00;;;;;;5015439;28;20186;-70
2023/03/01 03:31:18;;;;;;;20.67;11.97;;;1.70;1.00;;;;;;4999625;28;20534;-71
2023/03/01 03:33:43;;;;;;;20.10;11.50;;;2.20;1.00;;;;;;5017513;28;20242;-71
2023/03/01 03:36:12;;;;;;;20.80;11.90;;;1.60;1.00;;;;;;5023925;28;20550;-70
2023/03/01 03:38:38;;;;;;;19.37;11.40;;;1.60;1.00;;;;;;5025634;28;20174;-71
2023/03/01 03:41:07;;;;;;;18.77;11.43;;;1.60;1.00;;;;;;5018973;28;20549;-71
2023/03/01 03:43:35;;;;;;;19.90;12.00;;;1.60;1.00;;;;;;5002196;28;20421;-70
2023/03/01 03:46:05;;;;;;;22.50;12.33;;;1.60;1.00;;;;;;5017421;28;20499;-70
2023/03/01 03:48:32;;;;;;;22.77;11.87;;;1.90;1.00;;;;;;4995421;28;20780;-71
2023/03/01 03:50:58;;;;;;;21.10;12.10;;;1.90;1.00;;;;;;5021031;28;20425;-71
2023/03/01 03:53:26;;;;;;;19.57;11.77;;;2.00;1.00;;;;;;5016316;28;20954;-71
2023/03/01 03:55:52;;;;;;;24.03;12.43;;;2.00;1.00;;;;;;5005321;28;20764;-71
2023/03/01 03:58:20;;;;;;;21.13;12.47;;;1.50;1.00;;;;;;5024309;28;20517;-71
2023/03/01 04:00:47;;;;;;;18.40;11.80;;;1.50;1.00;;;;;;5022520;28;20436;-71
2023/03/01 04:03:14;;;;;;;21.40;12.87;;;1.60;1.00;;;;;;5020148;28;20835;-71
2023/03/01 04:05:41;;;;;;;20.50;12.17;;;1.40;1.00;;;;;;5021969;28;20456;-71
2023/03/01 04:08:07;;;;;;;19.23;12.40;;;2.00;1.00;;;;;;5003234;28;20437;-70
2023/03/01 04:10:39;;;;;;;25.13;13.40;;;1.50;1.00;;;;;;5020262;28;20531;-71
2023/03/01 04:13:07;;;;;;;23.27;13.13;;;1.50;1.00;;;;;;5018781;28;20943;-71
2023/03/01 04:15:33;;;;;;;22.63;12.80;;;1.50;1.00;;;;;;5009181;28;20475;-71
2023/03/01 04:17:59;;;;;;;24.13;13.40;;;2.00;1.00;;;;;;5010608;28;20442;-70
2023/03/01 04:20:28;;;;;;;21.73;12.17;;;1.90;1.00;;;;;;5028320;28;20435;-71
2023/03/01 04:23:13;;;;;;;22.07;12.77;;;1.50;1.00;;;;;;5011716;28;21091;-71
2023/03/01 04:25:45;;;;;;;22.33;13.17;;;1.50;1.00;;;;;;4991389;28;20457;-71
2023/03/01 04:28:11;;;;;;;21.47;11.50;;;2.00;1.00;;;;;;5010708;28;20456;-70
2023/03/01 04:30:37;;;;;;;23.60;12.70;;;1.90;1.00;;;;;;5026778;28;20425;-71
2023/03/01 04:33:05;;;;;;;21.50;12.90;;;1.80;1.00;;;;;;5007403;28;20228;-71
2023/03/01 04:35:31;;;;;;;21.37;12.80;;;1.40;1.00;;;;;;5025629;28;20468;-71
2023/03/01 04:37:57;;;;;;;23.67;14.03;;;1.40;1.00;;;;;;5008673;28;20433;-71
2023/03/01 04:40:22;;;;;;;24.03;12.90;;;1.80;1.00;;;;;;5016280;28;20522;-70
2023/03/01 04:42:48;;;;;;;24.40;12.03;;;1.50;1.00;;;;;;5018421;28;20645;-71
2023/03/01 04:45:13;;;;;;;21.47;12.60;;;1.80;1.00;;;;;;4997065;28;20736;-71
2023/03/01 04:47:40;;;;;;;19.80;12.27;;;1.50;1.00;;;;;;5022186;28;20170;-70
2023/03/01 04:50:07;;;;;;;21.63;12.03;;;1.80;1.00;;;;;;5018715;28;20671;-71
2023/03/01 04:52:33;;;;;;;24.23;12.60;;;1.50;1.00;;;;;;5020641;28;20433;-70
2023/03/01 04:54:58;;;;;;;24.60;13.50;;;1.60;1.00;;;;;;5001244;28;20460;-71
2023/03/01 04:57:24;;;;;;;23.77;12.43;;;1.50;1.00;;;;;;5019950;28;20209;-71
2023/03/01 04:59:49;;;;;;;24.30;13.43;;;1.90;1.00;;;;;;5023407;28;20265;-70
2023/03/01 05:02:14;;;;;;;23.70;13.27;;;1.60;1.00;;;;;;5011973;28;20590;-70
2023/03/01 05:04:40;;;;;;;21.10;13.23;;;1.90;1.00;;;;;;5028503;28;20252;-71
2023/03/01 05:07:06;;;;;;;20.63;12.67;;;1.90;1.00;;;;;;5019894;28;20272;-71
2023/03/01 05:09:31;;;;;;;20.77;12.40;;;;;;;;;;5015633;28;20193;-71
2023/03/01 05:11:57;;;;;;;22.30;12.73;;;1.30;1.00;;;;;;5022860;28;20704;-70
2023/03/01 05:14:22;;;;;;;24.73;14.47;;;1.30;1.00;;;;;;5004349;28;20456;-71
2023/03/01 05:16:48;;;;;;;23.57;13.90;;;1.40;1.00;;;;;;5017088;28;20208;-70
2023/03/01 05:19:16;;;;;;;22.13;12.90;;;1.20;1.00;;;;;;5025505;28;20268;-70
2023/03/01 05:22:01;;;;;;;23.30;13.77;;;1.60;1.00;;;;;;5020948;28;20191;-71
2023/03/01 05:24:28;;;;;;;23.00;13.40;;;1.10;1.00;;;;;;5014934;28;20453;-70
2023/03/01 05:26:54;;;;;;;26.50;14.20;;;1.50;1.00;;;;;;5016121;28;20523;-70
2023/03/01 05:29:24;;;;;;;27.53;12.80;;;1.00;1.00;;;;;;5017445;28;20517;-71
2023/03/01 05:31:53;;;;;;;21.47;12.67;;;1.50;1.00;;;;;;5026138;28;20777;-70
2023/03/01 05:34:20;;;;;;;25.73;12.40;;;1.00;1.00;;;;;;5028318;28;21036;-71
2023/03/01 05:36:48;;;;;;;26.40;14.60;;;1.30;1.00;;;;;;5016587;28;20472;-71
2023/03/01 05:39:13;;;;;;;23.83;13.07;;;0.80;1.00;;;;;;5019090;28;20436;-71
2023/03/01 05:41:40;;;;;;;24.03;12.80;;;1.10;1.00;;;;;;5003996;28;20653;-71
2023/03/01 05:44:06;;;;;;;26.10;12.63;;;1.30;1.00;;;;;;5026499;28;20248;-71
2023/03/01 05:46:32;;;;;;;25.70;13.60;;;1.10;1.00;;;;;;5020810;28;20461;-71
2023/03/01 05:48:57;;;;;;;25.10;13.00;;;1.00;1.00;;;;;;5013791;28;20851;-71
2023/03/01 05:51:23;;;;;;;23.77;14.17;;;1.00;1.00;;;;;;5028182;28;20201;-71
2023/03/01 05:53:48;;;;;;;28.90;15.67;;;0.80;1.00;;;;;;5005259;28;20577;-71
2023/03/01 05:56:14;;;;;;;27.63;15.53;;;0.80;1.00;;;;;;5008394;28;20257;-71
2023/03/01 05:58:39;;;;;;;27.90;14.47;;;1.20;1.00;;;;;;5025954;28;20187;-70
2023/03/01 06:01:05;;;;;;;24.70;13.70;;;0.90;1.00;;;;;;5009245;28;20272;-70
2023/03/01 06:03:30;;;;;;;25.03;13.67;;;0.90;1.00;;;;;;5008381;28;20183;-71
2023/03/01 06:05:57;;;;;;;26.40;13.23;;;1.40;1.00;;;;;;5005660;28;20201;-71
2023/03/01 06:08:24;;;;;;;27.87;14.03;;;1.00;1.00;;;;;;5023059;28;20182;-70
2023/03/01 06:10:49;;;;;;;25.67;13.80;;;1.00;1.00;;;;;;5003910;28;20835;-71
2023/03/01 06:13:15;;;;;;;21.23;12.60;;;1.40;1.00;;;;;;5017486;28;20441;-70
2023/03/01 06:15:40;;;;;;;26.90;13.90;;;1.60;1.00;;;;;;5019265;28;20218;-71
2023/03/01 06:18:05;;;;;;;25.70;13.40;;;1.60;1.00;;;;;;5024469;28;20703;-70
2023/03/01 06:20:31;;;;;;;20.97;12.87;;;1.70;1.00;;;;;;5017872;28;20187;-70
2023/03/01 06:22:57;;;;;;;24.40;13.70;;;1.60;1.00;;;;;;5004485;28;20652;-71
2023/03/01 06:25:25;;;;;;;26.33;14.13;;;1.30;1.00;;;;;;4991625;28;20249;-71
2023/03/01 06:27:52;;;;;;;23.63;13.50;;;1.70;1.00;;;;;;5024382;28;20269;-69
2023/03/01 06:30:19;;;;;;;23.37;13.43;;;1.30;1.00;;;;;;5023577;28;20445;-70
2023/03/01 06:32:45;;;;;;;27.43;13.17;;;1.30;1.00;;;;;;5022427;28;20443;-70
2023/03/01 06:35:13;;;;;;;27.17;13.73;;;1.80;1.00;;;;;;5021805;28;20512;-71
2023/03/01 06:37:39;;;;;;;22.10;12.80;;;1.80;1.00;;;;;;5030080;28;20181;-70
2023/03/01 06:40:08;;;;;;;25.90;13.73;;;1.50;1.00;;;;;;5005053;28;20434;-71
2023/03/01 06:42:43;;;;;;;22.03;12.53;;;1.50;1.00;;;;;;5026907;28;20438;-72
2023/03/01 06:45:10;;;;;;;24.47;13.27;;;2.00;1.00;;;;;;5008472;28;20624;-71
2023/03/01 06:47:35;;;;;;;24.93;13.47;;;2.10;1.00;;;;;;5007942;28;20434;-71
2023/03/01 06:50:02;;;;;;;21.60;12.83;;;1.70;1.00;;;;;;5011746;28;20448;-71
2023/03/01 06:52:28;;;;;;;25.47;13.97;;;2.20;1.00;;;;;;5007924;28;20182;-71
2023/03/01 06:54:53;;;;;;;25.10;13.90;;;1.80;1.00;;;;;;5009753;28;20986;-71
2023/03/01 06:57:19;;;;;;;22.70;13.40;;;2.40;1.00;;;;;;5025006;28;20292;-71
2023/03/01 06:59:44;;;;;;;23.90;13.50;;;1.90;1.00;;;;;;5017969;28;20533;-71
2023/03/01 07:02:11;;;;;;;23.00;13.50;;;2.10;1.00;;;;;;4996831;28;20186;-71
2023/03/01 07:04:37;;;;;;;21.13;12.57;;;1.80;1.00;;;;;;4993218;28;20189;-71
2023/03/01 07:07:02;;;;;;;26.47;13.67;;;2.10;1.00;;;;;;5022780;28;20449;-71
2023/03/01 07:09:28;;;;;;;25.77;14.00;;;2.10;1.00;;;;;;5016065;28;21387;-71
2023/03/01 07:11:54;;;;;;;20.13;12.90;;;2.30;1.00;;;;;;5030455;28;20186;-71
2023/03/01 07:14:19;;;;;;;21.83;13.80;;;2.20;1.00;;;;;;5011830;28;20756;-71
2023/03/01 07:16:45;;;;;;;22.50;13.00;;;2.20;1.00;;;;;;5009702;28;20267;-72
2023/03/01 07:19:11;;;;;;;24.80;14.13;;;2.20;1.00;;;;;;5017176;28;20206;-71
2023/03/01 07:21:38;;;;;;;24.50;14.00;;;2.90;1.00;;;;;;5008188;28;20438;-71
2023/03/01 07:24:06;;;;;;;22.03;13.03;;;2.60;1.00;;;;;;5007092;28;20194;-71
2023/03/01 07:26:31;;;;;;;25.05;14.40;;;2.40;1.00;;;;;;5009693;28;20466;-71
2023/03/01 07:28:59;;;;;;;22.37;14.30;;;2.80;1.00;;;;;;5006976;28;20244;-72
2023/03/01 07:31:27;;;;;;;25.60;13.73;;;2.80;1.00;;;;;;5007424;28;20238;-72
2023/03/01 07:33:53;;;;;;;23.30;13.10;;;2.80;1.00;;;;;;5000700;28;20463;-71
2023/03/01 07:36:19;;;;;;;23.30;13.67;;;2.80;1.00;;;;;;5040235;22;20547;-70
2023/03/01 07:38:44;;;;;;;24.80;14.30;;;3.20;1.00;;;;;;5009196;28;20816;-68
2023/03/01 07:41:10;;;;;;;24.87;14.43;;;2.90;1.00;;;;;;5001796;28;20694;-71
2023/03/01 07:43:35;;;;;;;24.37;13.30;;;3.40;1.00;;;;;;4987855;28;20236;-69
2023/03/01 07:46:02;;;;;;;23.73;13.70;;;3.10;1.00;;;;;;4988585;28;20569;-70
2023/03/01 07:48:29;;;;;;;24.33;13.17;;;3.20;1.00;;;;;;4990315;28;20186;-72
2023/03/01 07:50:58;;;;;;;22.73;13.30;;;3.30;1.00;;;;;;4985179;28;20445;-69
2023/03/01 07:53:24;;;;;;;22.10;13.50;;;3.80;1.00;;;;;;4981979;28;21059;-72
2023/03/01 07:55:49;;;;;;;22.90;13.40;;;3.40;1.00;;;;;;5007294;28;20563;-68
2023/03/01 07:58:15;;;;;;;26.20;14.57;;;3.50;1.00;;;;;;5009086;28;20241;-70
2023/03/01 08:00:40;;;;;;;21.00;12.23;;;3.70;1.00;;;;;;5000870;28;20197;-68
2023/03/01 08:03:06;;;;;;;27.70;14.70;;;3.90;1.00;;;;;;5001465;28;20270;-71
2023/03/01 08:05:32;;;;;;;23.20;14.53;;;3.60;1.00;;;;;;4999415;28;20349;-69
2023/03/01 08:07:57;;;;;;;20.60;13.23;;;3.70;1.00;;;;;;4992093;28;20265;-68
2023/03/01 08:10:23;;;;;;;22.80;13.70;;;3.80;1.00;;;;;;5008915;28;20954;-70
2023/03/01 08:12:51;;;;;;;25.53;14.00;;;4.20;1.00;;;;;;5009833;28;20183;-69
2023/03/01 08:15:18;;;;;;;25.27;14.17;;;4.20;1.00;;;;;;5010105;28;20244;-70
2023/03/01 08:17:44;;;;;;;21.27;13.77;;;3.90;1.00;;;;;;4991702;28;20951;-70
2023/03/01 08:20:12;;;;;;;22.50;14.00;;;4.00;1.00;;;;;;5007764;28;20461;-69
2023/03/01 08:22:37;;;;;;;26.33;14.20;;;4.00;1.00;;;;;;5006878;28;20182;-69
2023/03/01 08:25:03;;;;;;;20.63;13.40;;;4.10;1.00;;;;;;5009917;28;20440;-70
2023/03/01 08:27:29;;;;;;;24.77;14.20;;;4.20;1.00;;;;;;5008623;28;20226;-70
2023/03/01 08:29:54;;;;;;;24.70;13.77;;;4.30;1.00;;;;;;5006979;28;20441;-69
2023/03/01 08:32:20;;;;;;;20.97;12.60;;;4.30;1.00;;;;;;5008660;28;20183;-69
2023/03/01 08:34:48;;;;;;;24.10;13.90;;;4.40;1.00;;;;;;5011544;28;20653;-69
2023/03/01 08:37:14;;;;;;;19.37;13.03;;;4.50;1.00;;;;;;4996062;28;20210;-69
2023/03/01 08:39:39;;;;;;;26.17;14.67;;;4.80;1.00;;;;;;4995680;28;20994;-69
2023/03/01 08:42:05;;;;;;;25.70;13.20;;;4.50;1.00;;;;;;5013376;28;20525;-68
2023/03/01 08:44:30;;;;;;;22.27;12.80;;;4.70;1.00;;;;;;5010808;28;20178;-70
2023/03/01 08:46:57;;;;;;;27.70;14.23;;;4.90;1.00;;;;;;4995674;28;20238;-69
2023/03/01 08:49:23;;;;;;;27.00;14.13;;;4.90;1.00;;;;;;4992518;28;20252;-68
2023/03/01 08:51:48;;;;;;;26.13;13.97;;;5.10;1.00;;;;;;5008257;28;20520;-69
2023/03/01 08:54:21;;;;;;;25.70;13.77;;;5.20;1.00;;;;;;4991326;28;20529;-69
2023/03/01 08:56:47;;;;;;;23.73;13.90;;;5.40;1.00;;;;;;5010379;28;20652;-68
2023/03/01 08:59:15;;;;;;;24.53;13.67;;;5.80;1.00;;;;;;5013037;28;20445;-70
2023/03/01 09:01:43;;;;;;;20.57;14.00;;;7.40;1.00;;;;;;5011304;28;20429;-70
2023/03/01 09:04:09;;;;;;;22.00;14.17;;;9.30;1.00;;;;;;4990690;28;20449;-70
2023/03/01 09:06:35;;;;;;;21.53;14.97;;;11.30;1.00;;;;;;5012991;28;20461;-70
2023/03/01 09:09:01;;;;;;;24.00;15.50;;;12.80;1.00;;;;;;5012839;28;20183;-71
2023/03/01 09:11:28;;;;;;;23.10;15.90;;;14.20;1.00;;;;;;4996755;28;20429;-71
2023/03/01 09:13:54;;;;;;;22.30;16.93;;;14.90;1.00;;;;;;5006909;28;20443;-70
2023/03/01 09:16:21;;;;;;;25.50;19.00;;;15.70;1.00;;;;;;5013692;28;20461;-71
2023/03/01 09:18:56;;;;;;;28.63;20.47;;;16.70;1.00;;;;;;5012336;28;20269;-68
2023/03/01 09:21:23;;;;;;;27.10;20.37;;;16.60;1.00;;;;;;4995018;28;20440;-70
2023/03/01 09:23:48;;;;;;;27.97;21.27;;;16.60;1.00;;;;;;5010383;28;20843;-71
2023/03/01 09:26:18;;;;;;;29.10;21.00;;;16.80;1.00;;;;;;4993824;28;20548;-69
2023/03/01 09:28:45;;;;;;;26.17;21.00;;;16.70;1.00;;;;;;5013178;28;20190;-70
2023/03/01 09:31:12;;;;;;;27.17;20.10;;;16.20;1.00;;;;;;4993801;28;20788;-71
2023/03/01 09:33:39;;;;;;;28.03;20.33;;;16.40;1.00;;;;;;5008856;28;20811;-71
2023/03/01 09:36:07;;;;;;;27.73;20.47;;;16.60;1.00;;;;;;5012216;28;20503;-71
2023/03/01 09:38:33;;;;;;;28.03;20.63;;;17.00;1.00;;;;;;5005703;28;20445;-70
2023/03/01 09:41:00;;;;;;;28.27;22.10;;;17.40;1.00;;;;;;5011628;28;20855;-71
2023/03/01 09:43:34;;;;;;;27.27;21.60;;;17.30;1.00;;;;;;4990298;28;20186;-68
2023/03/01 09:46:05;;;;;;;29.87;21.00;;;17.50;1.00;;;;;;5009247;28;20478;-70
2023/03/01 09:48:39;;;;;;;26.40;20.23;;;17.40;1.00;;;;;;4989402;28;20436;-70
2023/03/01 09:51:14;;;;;;;28.10;20.90;;;18.70;1.00;;;;;;4993409;28;20444;-71
2023/03/01 09:53:40;;;;;;;28.50;21.37;;;18.70;1.00;;;;;;5013344;28;20523;-70
2023/03/01 09:56:21;;;;;;;27.80;21.37;;;19.70;1.00;;;;;;5008172;28;20576;-71
2023/03/01 09:59:16;;;;;;;26.60;21.60;;;20.80;1.00;;;;;;5009102;28;20601;-71
2023/03/01 10:02:03;;;;;;;25.27;21.23;;;21.00;1.00;;;;;;4994936;28;20437;-71
2023/03/01 10:04:48;;;;;;;26.00;20.57;;;20.70;1.00;;;;;;4996033;28;20445;-70
2023/03/01 10:07:21;;;;;;;26.27;20.87;;;20.50;1.00;;;;;;4991260;28;20449;-71
2023/03/01 10:09:47;;;;;;;27.20;21.20;;;21.00;1.00;;;;;;4991908;28;20494;-71
2023/03/01 10:12:26;;;;;;;24.80;20.57;;;21.70;1.00;;;;;;5007574;28;20489;-72
2023/03/01 10:15:20;;;;;;;25.87;20.10;;;22.00;1.00;;;;;;5010051;28;21008;-72
2023/03/01 10:17:52;;;;;;;24.80;20.67;;;22.20;1.00;;;;;;4991591;28;20465;-71
2023/03/01 10:20:46;;;;;;;27.50;21.23;;;22.70;1.00;;;;;;5010540;28;20494;-71
2023/03/01 10:23:12;;;;;;;26.67;21.57;;;22.70;1.00;;;;;;4984545;28;20815;-72
2023/03/01 10:26:04;;;;;;;23.50;19.90;;;23.80;1.00;;;;;;5011494;28;20631;-72
2023/03/01 10:28:59;;;;;;;24.70;19.87;;;23.90;1.00;;;;;;4987664;28;20190;-70
2023/03/01 10:31:36;;;;;;;26.03;21.03;;;24.80;1.00;;;;;;5006337;28;20456;-72
2023/03/01 10:34:07;;;;;;;22.13;19.50;;;25.30;1.00;;;;;;4987739;28;20267;-72
2023/03/01 10:36:34;;;;;;;29.00;20.13;;;26.00;1.00;;;;;;4988632;28;20223;-71
2023/03/01 10:39:03;;;;;;;24.03;20.23;;;26.00;1.00;;;;;;5011738;28;20298;-72
2023/03/01 10:41:29;;;;;;;24.67;20.60;;;25.80;1.00;;;;;;5008457;28;20186;-70
2023/03/01 10:43:57;;;;;;;22.67;19.80;;;25.70;1.00;;;;;;5007183;28;20185;-72
2023/03/01 10:46:29;;;;;;;22.73;19.93;;;25.60;1.00;;;;;;5004914;28;20687;-72
2023/03/01 10:49:15;;;;;;;23.40;20.10;;;25.00;1.00;;;;;;5004594;28;20189;-71
2023/03/01 10:51:42;;;;;;;24.03;20.73;;;25.00;1.00;;;;;;4984457;28;20271;-72
2023/03/01 10:54:19;;;;;;;23.53;19.63;;;26.00;1.00;;;;;;4984307;28;20181;-72
2023/03/01 10:56:53;;;;;;;24.30;20.27;;;26.00;1.00;;;;;;5008400;28;20218;-71
2023/03/01 10:59:38;;;;;;;21.77;19.10;;;25.90;1.00;;;;;;4985727;28;20187;-72
2023/03/01 11:02:16;;;;;;;22.13;19.50;;;25.90;1.00;;;;;;5005732;28;20182;-71
2023/03/01 11:05:00;;;;;;;21.03;18.20;;;26.50;1.00;;;;;;5011274;28;20257;-72
2023/03/01 11:07:26;;;;;;;21.70;18.77;;;26.90;1.00;;;;;;5004864;28;20201;-72
2023/03/01 11:09:52;;;;;;;21.13;18.83;;;27.00;1.00;;;;;;5009566;28;20555;-72
2023/03/01 11:12:18;;;;;;;22.27;19.03;;;26.80;1.00;;;;;;5008267;28;20190;-72
2023/03/01 11:14:52;;;;;;;21.73;17.40;;;26.10;1.00;;;;;;5005655;28;20194;-72
2023/03/01 11:17:29;;;;;;;22.13;18.10;;;25.60;1.00;;;;;;4984747;28;20220;-72
2023/03/01 11:20:18;;;;;;;23.10;19.27;;;26.50;1.00;;;;;;5008042;28;20178;-72
2023/03/01 11:22:50;;;;;;;23.07;18.00;;;27.20;1.00;;;;;;5001960;28;20174;-72
2023/03/01 11:25:19;;;;;;;20.23;17.93;;;28.10;1.00;;;;;;4983676;28;20178;-73
2023/03/01 11:27:46;;;;;;;22.15;17.17;;;28.00;1.00;;;;;;5006506;28;20202;-72
2023/03/01 11:30:34;;;;;;;21.70;18.50;;;28.50;1.00;;;;;;5008265;28;20665;-72
2023/03/01 11:33:13;;;;;;;21.25;18.45;;;29.00;1.00;;;;;;5001174;28;20186;-71
2023/03/01 11:35:46;;;;;;;21.25;18.90;;;27.30;1.00;;;;;;5006979;28;20205;-72
2023/03/01 11:38:27;;;;;;;22.80;19.67;;;27.30;1.00;;;;;;4987717;28;20198;-73
2023/03/01 11:40:58;;;;;;;21.50;17.77;;;26.90;1.00;;;;;;4999164;28;20679;-73
2023/03/01 11:43:46;;;;;;;20.37;17.80;;;26.30;1.00;;;;;;4990632;28;20197;-72
2023/03/01 11:46:20;;;;;;;23.73;19.40;;;25.50;1.00;;;;;;4999878;28;20209;-73
2023/03/01 11:49:03;;;;;;;23.97;18.10;;;26.10;1.00;;;;;;5009837;28;20192;-74
2023/03/01 11:51:41;;;;;;;22.30;18.87;;;26.10;1.00;;;;;;5010103;28;20552;-73
2023/03/01 11:54:24;;;;;;;21.03;17.47;;;26.40;1.00;;;;;;4983383;28;20261;-74
2023/03/01 11:57:11;;;;;;;20.30;17.60;;;27.20;1.00;;;;;;5005599;28;20632;-71
2023/03/01 12:00:03;;;;;;;20.70;17.10;;;27.50;1.00;;;;;;5005148;28;21454;-75
2023/03/01 12:02:40;;;;;;;20.97;17.07;;;28.10;1.00;;;;;;4990997;28;20189;-72
2023/03/01 12:05:21;;;;;;;21.60;17.15;;;28.80;1.00;;;;;;4987531;28;20181;-72
2023/03/01 12:08:01;;;;;;;20.05;16.77;;;29.20;1.00;;;;;;4988800;28;20206;-71
2023/03/01 12:10:30;;;;;;;19.70;17.42;;;29.10;1.00;;;;;;4985100;28;20264;-72
2023/03/01 12:13:13;;;;;;;22.50;17.25;;;28.10;1.00;;;;;;5001247;28;20182;-73
2023/03/01 12:16:02;;;;;;;19.80;16.75;;;28.40;1.00;;;;;;4983131;28;20220;-73
2023/03/01 12:18:40;;;;;;;17.48;15.68;;;28.50;1.00;;;;;;5001441;28;20194;-74
2023/03/01 12:21:27;;;;;;;21.25;16.23;;;29.30;1.00;;;;;;4980331;28;20533;-73
2023/03/01 12:24:31;;;;;;;19.13;16.58;;;29.30;1.00;;;;;;4991823;28;20235;-72
2023/03/01 12:27:19;;;;;;;21.73;16.90;;;29.30;1.00;;;;;;5005113;28;20205;-72
2023/03/01 12:29:50;;;;;;;20.55;15.18;;;29.80;1.00;;;;;;5005657;28;20186;-71
2023/03/01 12:32:53;;;;;;;18.60;15.32;;;29.30;1.00;;;;;;5009727;28;20273;-71
2023/03/01 12:35:37;;;;;;;17.10;14.45;;;29.10;1.00;;;;;;5008451;28;20185;-71
2023/03/01 12:38:33;;;;;;;17.20;14.18;;;29.50;1.00;;;;;;5002075;28;20545;-74
2023/03/01 12:41:13;;;;;;;20.20;15.50;;;29.90;1.00;;;;;;4989015;28;20269;-73
2023/03/01 12:43:57;;;;;;;15.95;14.25;;;29.60;1.00;;;;;;4987715;28;20181;-72
2023/03/01 12:46:25;;;;;;;17.08;14.70;;;29.40;1.00;;;;;;5002173;28;20243;-73
2023/03/01 12:49:34;;;;;;;15.80;13.40;;;29.80;1.00;;;;;;4976574;28;20194;-72
2023/03/01 12:52:12;;;;;;;16.50;14.38;;;30.10;1.00;;;;;;4998480;28;20193;-73
2023/03/01 12:54:38;;;;;;;15.98;13.90;;;29.80;1.00;;;;;;5006252;28;20205;-72
2023/03/01 12:57:19;;;;;;;17.15;14.85;;;29.90;1.00;;;;;;5002647;28;20210;-73
2023/03/01 13:00:07;;;;;;;16.88;15.07;;;29.70;1.00;;;;;;4992121;28;20218;-72